Pagina principale
METAR-TAF:

METAR-TAF

Aeroporti :

Danbury Municipal Airport

Danbury, Connecticut, Stati Uniti

latitudine: 41-22-18N, longitudine: 073-29-04W, altezza: 139 m

Osservazione

Il bollettino è stato emesso 12 minuti fa, alle 07:53 UTC
Vento calmo
Temperature 11°C
Umidità 100%
Pressione 1018 hPa
Visibilità: 16.1 km
Cielo sereno

METAR: KDXR 240753Z AUTO 00000KT 10SM CLR 11/11 A3005 RMK AO2 SLP175 T01110106

Ora: 04:05 (08:05 UTC)


TAF: mancante

Osservazioni e previsioni meteorologiche di più di 4000 aeroporti (messaggi METAR e TAF).

Le stazioni disponibili sono rappresentate dai dischi gialli e rossi sulla carta.

Puntare il mouse per vedere il nome della stazione.

Clicca sopra per visualizzare le osservazioni e previsioni meteorologiche.

Per cambiare la mappa : fare clic sui pulsanti verdi con una croce nera per ingrandire, il pulsante verde con un trattino per diminuire, o sulla freccia verde per le mappe adiacenti.


METAR-TAF: